Data Viewer
| City | State | Eastern Time | Source | Temp | DewPt | RH | BP | 5 Min Precip | Wind Speed | Wind Dir | 5 Min Wind Max | 5 Min Wind Max Dir |
|---|---|---|---|---|---|---|---|---|---|---|---|---|
| Andover | NJ | 2026-05-06 16:54 | ASOS | 61 | 58 | 90 | 29.72 | 9 | SSW | |||
| Andover | NJ | 2026-05-07 04:54 | ASOS | 46 | 43 | 89 | 29.84 | 5 | ||||
| Andover | NJ | 2026-05-07 13:54 | ASOS | 61 | 32 | 33 | 29.80 | |||||
| Andover | NJ | 2026-05-07 12:54 | ASOS | 59 | 32 | 36 | 29.83 | 7 | ||||
| Andover | NJ | 2026-05-07 11:54 | ASOS | 57 | 32 | 39 | 29.85 | 3 | ||||
| Andover | NJ | 2026-05-07 10:54 | ASOS | 55 | 31 | 40 | 29.88 | 9 | N | |||
| Andover | NJ | 2026-05-07 09:54 | ASOS | 54 | 34 | 47 | 29.89 | 6 | ||||
| Andover | NJ | 2026-05-07 08:54 | ASOS | 51 | 34 | 52 | 29.88 | 7 | ||||
| Andover | NJ | 2026-05-07 07:54 | ASOS | 49 | 36 | 61 | 29.88 | 7 | ||||
| Andover | NJ | 2026-05-07 06:54 | ASOS | 47 | 42 | 83 | 29.87 | 5 | NNW | |||
| Andover | NJ | 2026-05-07 05:54 | ASOS | 47 | 43 | 86 | 29.85 | 6 | N | |||
| Andover | NJ | 2026-05-07 03:54 | ASOS | 48 | 44 | 86 | 29.84 | 5 | NNW | |||
| Andover | NJ | 2026-05-06 17:54 | ASOS | 61 | 59 | 93 | 29.73 | 5 | SSW | |||
| Andover | NJ | 2026-05-07 02:54 | ASOS | 48 | 45 | 89 | 29.85 | 0 | N | |||
| Andover | NJ | 2026-05-07 01:54 | ASOS | 50 | 43 | 77 | 29.84 | 0 | N | |||
| Andover | NJ | 2026-05-07 00:54 | ASOS | 50 | 44 | 80 | 29.83 | 5 | ||||
| Andover | NJ | 2026-05-06 23:54 | ASOS | 52 | 46 | 80 | 29.83 | 5 | N | |||
| Andover | NJ | 2026-05-06 22:54 | ASOS | 52 | 46 | 80 | 29.83 | 5 | NE | |||
| Andover | NJ | 2026-05-06 21:54 | ASOS | 54 | 49 | 83 | 29.84 | 8 | NNW | |||
| Andover | NJ | 2026-05-06 20:54 | ASOS | 56 | 52 | 87 | 29.80 | 0 | N | |||
| Andover | NJ | 2026-05-06 19:54 | ASOS | 61 | 59 | 93 | 29.74 | 0 | N | |||
| Andover | NJ | 2026-05-06 18:54 | ASOS | 61 | 59 | 93 | 29.74 | 5 | ||||
| Andover | NJ | 2026-05-07 14:54 | ASOS | 61 | 32 | 33 | 29.78 | 7 | N |
data collection created in 0.0045938491821289 (queried in 0.001378) rendered in: 3.0994415283203E-5

